createdAt,value
2022-09-21T00:01:22.196Z,37.06
2022-09-21T00:03:48.653Z,36.96
2022-09-21T00:06:15.027Z,37.20
2022-09-21T00:08:41.352Z,37.08
2022-09-21T00:11:07.698Z,36.91
2022-09-21T00:13:34.107Z,36.94
2022-09-21T00:16:00.430Z,37.06
2022-09-21T00:18:26.759Z,37.18
2022-09-21T00:20:53.082Z,37.40
2022-09-21T00:23:19.382Z,37.37
2022-09-21T00:25:45.704Z,37.51
2022-09-21T00:28:12.044Z,37.17
2022-09-21T00:30:38.375Z,37.32
2022-09-21T00:33:04.694Z,37.51
2022-09-21T00:35:31.011Z,37.52
2022-09-21T00:37:57.342Z,37.63
2022-09-21T00:40:23.701Z,37.68
2022-09-21T00:42:50.109Z,37.46
2022-09-21T00:45:16.425Z,37.54
2022-09-21T00:47:42.722Z,37.59
2022-09-21T00:50:09.026Z,37.59
2022-09-21T00:52:35.342Z,37.72
2022-09-21T00:55:01.705Z,37.65
2022-09-21T00:57:28.033Z,37.64
2022-09-21T00:59:54.363Z,37.54
2022-09-21T01:02:20.774Z,37.87
2022-09-21T01:04:47.145Z,37.78
2022-09-21T01:07:13.464Z,37.75
2022-09-21T01:09:39.787Z,37.83
2022-09-21T01:12:06.117Z,37.79
2022-09-21T01:14:32.451Z,37.58
2022-09-21T01:16:58.787Z,37.83
2022-09-21T01:19:25.085Z,37.71
2022-09-21T01:21:51.402Z,38.03
2022-09-21T01:24:17.766Z,37.98
2022-09-21T01:26:44.082Z,37.84
2022-09-21T01:29:10.402Z,37.92
2022-09-21T01:31:36.762Z,37.96
2022-09-21T01:34:03.083Z,37.95
2022-09-21T01:36:29.479Z,37.96
2022-09-21T01:38:55.820Z,37.78
2022-09-21T01:41:22.133Z,38.07
2022-09-21T01:43:48.442Z,37.99
2022-09-21T01:46:14.783Z,38.10
2022-09-21T01:48:41.122Z,37.47
2022-09-21T01:51:07.427Z,37.44
2022-09-21T01:53:33.753Z,37.42
2022-09-21T01:56:00.077Z,37.85
2022-09-21T01:58:26.412Z,37.97
2022-09-21T02:00:52.793Z,37.54
2022-09-21T02:03:19.135Z,37.63
2022-09-21T02:05:45.475Z,37.83
2022-09-21T02:08:11.809Z,37.57
2022-09-21T02:10:38.117Z,37.80
2022-09-21T02:13:04.438Z,37.87
2022-09-21T02:15:30.758Z,37.50
2022-09-21T02:17:57.126Z,37.15
2022-09-21T02:20:23.453Z,37.28
2022-09-21T02:22:49.770Z,37.15
2022-09-21T02:25:16.097Z,37.67
2022-09-21T02:27:42.411Z,37.44
2022-09-21T02:30:08.747Z,37.46
2022-09-21T02:32:35.091Z,37.22
2022-09-21T02:35:01.419Z,37.28
2022-09-21T02:37:27.738Z,37.50
2022-09-21T02:39:54.046Z,37.16
2022-09-21T02:42:20.351Z,37.61
2022-09-21T02:44:46.758Z,37.61
2022-09-21T02:47:13.069Z,37.67
2022-09-21T02:49:39.381Z,37.52
2022-09-21T02:52:05.691Z,37.08
2022-09-21T02:54:32.001Z,37.10
2022-09-21T02:56:58.335Z,37.30
2022-09-21T02:59:24.649Z,37.22
2022-09-21T03:01:51.016Z,37.06
2022-09-21T03:04:17.410Z,37.23
2022-09-21T03:06:43.724Z,37.39
2022-09-21T03:09:10.042Z,37.57
2022-09-21T03:11:36.398Z,37.49
2022-09-21T03:14:02.737Z,37.38
2022-09-21T03:16:29.099Z,37.24
2022-09-21T03:18:55.424Z,37.32
2022-09-21T03:21:21.755Z,37.38
2022-09-21T03:23:48.087Z,37.34
2022-09-21T03:26:14.444Z,37.02
2022-09-21T03:28:40.774Z,37.08
2022-09-21T03:31:07.153Z,36.96
2022-09-21T03:33:33.500Z,36.88
2022-09-21T03:35:59.832Z,37.07
2022-09-21T03:38:26.166Z,37.26
2022-09-21T03:40:52.474Z,36.56
2022-09-21T03:43:18.794Z,36.92
2022-09-21T03:45:45.110Z,37.04
2022-09-21T03:48:11.411Z,37.12
2022-09-21T03:50:37.727Z,36.76
2022-09-21T03:53:04.072Z,37.01
2022-09-21T03:55:30.419Z,36.79
2022-09-21T03:57:56.716Z,37.11
2022-09-21T04:00:23.037Z,36.98
2022-09-21T04:02:49.410Z,36.86
2022-09-21T04:05:15.762Z,36.88
2022-09-21T04:07:42.079Z,37.01
2022-09-21T04:10:08.398Z,36.96
2022-09-21T04:12:34.711Z,36.95
2022-09-21T04:15:01.033Z,36.60
2022-09-21T04:17:27.349Z,37.13
2022-09-21T04:19:53.679Z,37.18
2022-09-21T04:22:20.012Z,37.82
2022-09-21T04:24:46.335Z,37.46
2022-09-21T04:27:12.676Z,37.55
2022-09-21T04:29:39.014Z,37.29
2022-09-21T04:32:05.338Z,37.36
2022-09-21T04:34:31.650Z,37.64
2022-09-21T04:36:57.963Z,37.20
2022-09-21T04:39:24.260Z,37.31
2022-09-21T04:41:50.584Z,37.18
2022-09-21T04:44:16.918Z,37.67
2022-09-21T04:46:43.248Z,37.20
2022-09-21T04:49:09.579Z,37.15
2022-09-21T04:51:35.902Z,37.17
2022-09-21T04:54:02.210Z,37.41
2022-09-21T04:56:28.525Z,37.38
2022-09-21T04:58:54.885Z,37.52
2022-09-21T05:01:21.288Z,37.24
2022-09-21T05:03:47.734Z,37.07
2022-09-21T05:06:14.117Z,37.13
2022-09-21T05:08:40.446Z,36.93
2022-09-21T05:11:06.757Z,37.02
2022-09-21T05:13:33.094Z,37.13
2022-09-21T05:15:59.485Z,36.97
2022-09-21T05:18:25.835Z,37.02
2022-09-21T05:20:52.164Z,37.04
2022-09-21T05:23:18.512Z,37.03
2022-09-21T05:25:44.818Z,37.17
2022-09-21T05:28:11.165Z,37.02
2022-09-21T05:30:37.599Z,37.25
2022-09-21T05:33:03.970Z,37.21
2022-09-21T05:35:30.303Z,37.11
2022-09-21T05:37:56.636Z,36.89
2022-09-21T05:40:22.996Z,37.03
2022-09-21T05:42:49.336Z,36.88
2022-09-21T05:45:15.640Z,36.68
2022-09-21T05:47:42.055Z,36.88
2022-09-21T05:50:08.372Z,36.36
2022-09-21T05:52:34.678Z,36.63
2022-09-21T05:55:01.000Z,36.81
2022-09-21T05:57:30.645Z,36.55
2022-09-21T05:59:57.335Z,36.64
2022-09-21T06:02:23.708Z,36.60
2022-09-21T06:04:50.052Z,36.97
2022-09-21T06:07:16.410Z,36.84
2022-09-21T06:09:43.397Z,37.08
2022-09-21T06:12:09.779Z,37.07
2022-09-21T06:14:36.092Z,37.61
2022-09-21T06:17:02.405Z,36.96
2022-09-21T06:19:28.735Z,37.52
2022-09-21T06:21:55.090Z,38.01
2022-09-21T06:24:23.553Z,38.89
2022-09-21T06:26:50.903Z,39.35
2022-09-21T06:29:17.232Z,39.02
2022-09-21T06:31:43.553Z,38.20
2022-09-21T06:34:09.892Z,37.18
2022-09-21T06:36:36.215Z,36.99
2022-09-21T06:39:02.536Z,36.57
2022-09-21T06:41:28.886Z,36.77
2022-09-21T06:43:55.315Z,36.59
2022-09-21T06:46:21.728Z,36.29
2022-09-21T06:48:48.193Z,36.20
2022-09-21T06:51:14.527Z,35.96
2022-09-21T06:53:40.850Z,36.33
2022-09-21T06:56:07.174Z,36.38
2022-09-21T06:58:33.482Z,36.05
2022-09-21T07:00:59.928Z,36.02
2022-09-21T07:03:26.341Z,36.12
2022-09-21T07:05:52.713Z,36.04
2022-09-21T07:11:05.330Z,36.06
2022-09-21T07:13:31.667Z,35.72
2022-09-21T07:15:57.984Z,35.90
2022-09-21T07:18:24.305Z,35.92
2022-09-21T07:20:50.635Z,36.27
2022-09-21T07:23:16.970Z,35.78
2022-09-21T07:25:43.287Z,35.74
2022-09-21T07:28:09.603Z,35.47
2022-09-21T07:30:35.928Z,35.55
2022-09-21T07:33:02.224Z,35.63
2022-09-21T07:35:28.552Z,35.52
2022-09-21T07:37:54.863Z,35.99
2022-09-21T07:40:25.023Z,35.75
2022-09-21T07:42:51.706Z,35.41
2022-09-21T07:45:18.012Z,35.54
2022-09-21T07:47:44.347Z,35.31
2022-09-21T07:50:10.674Z,35.35
2022-09-21T07:52:37.015Z,35.04
2022-09-21T07:55:03.434Z,34.81
2022-09-21T07:57:29.759Z,34.47
2022-09-21T07:59:56.128Z,34.38
2022-09-21T08:02:22.550Z,33.84
2022-09-21T08:04:48.976Z,33.53
2022-09-21T08:07:15.311Z,33.34
2022-09-21T08:09:41.638Z,33.08
2022-09-21T08:12:07.983Z,33.81
2022-09-21T08:14:34.297Z,33.64
2022-09-21T08:17:00.621Z,34.22
2022-09-21T08:19:26.951Z,34.31
2022-09-21T08:21:57.290Z,34.50
2022-09-21T08:24:24.305Z,34.96
2022-09-21T08:26:50.644Z,34.99
2022-09-21T08:29:16.967Z,34.99
2022-09-21T08:31:43.386Z,35.17
2022-09-21T08:34:09.781Z,35.98
2022-09-21T08:36:36.106Z,37.26
2022-09-21T08:39:02.429Z,36.77
2022-09-21T08:41:28.762Z,37.01
2022-09-21T08:43:55.097Z,37.09
2022-09-21T08:46:21.459Z,34.83
2022-09-21T08:48:47.814Z,33.65
2022-09-21T08:51:14.149Z,33.94
2022-09-21T08:53:40.603Z,34.70
2022-09-21T08:56:06.939Z,34.80
2022-09-21T08:58:33.270Z,34.82
2022-09-21T09:01:02.459Z,36.11
2022-09-21T09:03:32.575Z,36.44
2022-09-21T09:05:58.938Z,36.66
2022-09-21T09:08:25.246Z,36.89
2022-09-21T09:10:51.573Z,36.96
2022-09-21T09:13:17.891Z,37.09
2022-09-21T09:15:44.265Z,37.55
2022-09-21T09:18:10.603Z,37.51
2022-09-21T09:20:36.949Z,37.04
2022-09-21T09:23:03.274Z,36.87
2022-09-21T09:25:29.581Z,36.82
2022-09-21T09:27:55.907Z,37.09
2022-09-21T09:30:22.275Z,37.06
2022-09-21T09:32:48.695Z,37.48
2022-09-21T09:35:15.019Z,37.15
2022-09-21T09:37:41.337Z,37.48
2022-09-21T09:40:07.691Z,37.29
2022-09-21T09:42:34.144Z,37.31
2022-09-21T09:45:00.521Z,37.50
2022-09-21T09:47:26.883Z,36.83
2022-09-21T09:49:53.209Z,37.05
2022-09-21T09:52:19.560Z,36.86
2022-09-21T09:54:45.913Z,36.95
2022-09-21T09:57:12.242Z,36.39
2022-09-21T09:59:38.575Z,36.77
2022-09-21T10:02:04.947Z,36.57
2022-09-21T10:04:31.328Z,36.57
2022-09-21T10:06:57.683Z,36.44
2022-09-21T10:09:24.043Z,36.79
2022-09-21T10:11:50.443Z,36.52
2022-09-21T10:14:16.747Z,36.48
2022-09-21T10:16:43.122Z,37.00
2022-09-21T10:19:09.471Z,36.76
2022-09-21T10:21:35.795Z,36.81
2022-09-21T10:24:02.115Z,36.87
2022-09-21T10:26:28.439Z,36.74
2022-09-21T10:28:54.796Z,36.76
2022-09-21T10:31:21.252Z,36.80
2022-09-21T10:33:47.581Z,36.74
2022-09-21T10:36:13.916Z,36.78
2022-09-21T10:38:40.245Z,36.76
2022-09-21T10:41:06.579Z,36.96
2022-09-21T10:43:34.757Z,37.10
2022-09-21T10:46:02.324Z,36.82
2022-09-21T10:48:28.722Z,36.80
2022-09-21T10:50:55.042Z,36.76
2022-09-21T10:53:21.404Z,36.92
2022-09-21T10:55:58.505Z,37.06
2022-09-21T10:58:34.023Z,36.89
2022-09-21T11:01:00.353Z,37.04
2022-09-21T11:03:26.887Z,37.00
2022-09-21T11:05:53.328Z,36.97
2022-09-21T11:08:19.701Z,37.19
2022-09-21T11:10:46.117Z,37.22
2022-09-21T11:13:12.450Z,36.85
2022-09-21T11:15:38.836Z,37.06
2022-09-21T11:18:05.229Z,36.95
2022-09-21T11:20:31.544Z,36.80
2022-09-21T11:22:57.935Z,36.89
2022-09-21T11:25:24.303Z,36.99
2022-09-21T11:27:50.617Z,37.16
2022-09-21T11:30:16.951Z,37.11
2022-09-21T11:32:43.265Z,36.70
2022-09-21T11:35:09.577Z,36.72
2022-09-21T11:37:35.884Z,36.64
2022-09-21T11:40:02.301Z,36.91
2022-09-21T11:42:28.751Z,36.89
2022-09-21T11:44:55.084Z,32.36
2022-09-21T11:47:21.424Z,31.75
2022-09-21T11:49:47.838Z,31.40
2022-09-21T11:52:14.285Z,30.63
2022-09-21T11:54:40.717Z,28.30
2022-09-21T11:57:07.060Z,28.95
2022-09-21T11:59:33.523Z,28.69
2022-09-21T12:02:00.234Z,27.25
2022-09-21T12:04:26.718Z,28.34
2022-09-21T12:06:53.047Z,28.10
2022-09-21T12:09:19.380Z,26.65
2022-09-21T12:11:45.703Z,27.90
2022-09-21T12:14:12.123Z,27.49
2022-09-21T12:16:38.474Z,27.42
2022-09-21T12:19:04.932Z,27.29
2022-09-21T12:21:31.328Z,27.23
2022-09-21T12:23:57.658Z,27.03
2022-09-21T12:26:23.992Z,26.29
2022-09-21T12:28:50.322Z,27.10
2022-09-21T12:31:16.686Z,27.00
2022-09-21T12:33:43.026Z,25.81
2022-09-21T12:36:09.404Z,25.89
2022-09-21T12:38:35.723Z,25.88
2022-09-21T12:41:02.059Z,25.93
2022-09-21T12:43:28.382Z,26.56
2022-09-21T12:45:54.741Z,26.67
2022-09-21T12:48:21.102Z,26.71
2022-09-21T12:50:47.446Z,26.33
2022-09-21T12:53:13.780Z,26.96
2022-09-21T12:55:40.091Z,26.45
2022-09-21T12:58:21.641Z,26.59
2022-09-21T13:00:47.956Z,26.14
2022-09-21T13:03:14.408Z,26.40
2022-09-21T13:05:40.910Z,26.23
2022-09-21T13:08:07.266Z,27.00
2022-09-21T13:10:33.590Z,25.68
2022-09-21T13:12:59.920Z,25.73
2022-09-21T13:15:26.249Z,25.82
2022-09-21T13:17:52.583Z,26.22
2022-09-21T13:20:18.957Z,25.96
2022-09-21T13:22:45.284Z,26.04
2022-09-21T13:25:11.603Z,26.05
2022-09-21T13:27:37.936Z,25.32
2022-09-21T13:30:04.251Z,25.13
2022-09-21T13:32:30.618Z,25.46
2022-09-21T13:34:56.982Z,24.96
2022-09-21T13:37:23.316Z,24.84
2022-09-21T13:39:49.646Z,24.92
2022-09-21T13:42:15.975Z,25.25
2022-09-21T13:44:42.309Z,25.34
2022-09-21T13:47:08.650Z,24.75
2022-09-21T13:49:34.987Z,24.94
2022-09-21T13:52:01.315Z,24.52
2022-09-21T13:54:27.656Z,24.67
2022-09-21T13:56:53.989Z,24.45
2022-09-21T13:59:20.317Z,24.96
2022-09-21T14:01:47.616Z,25.41
2022-09-21T14:04:14.353Z,25.27
2022-09-21T14:06:40.699Z,25.64
2022-09-21T14:09:07.034Z,25.78
2022-09-21T14:11:33.380Z,25.09
2022-09-21T14:13:59.711Z,25.90
2022-09-21T14:16:26.094Z,25.46
2022-09-21T14:18:52.514Z,25.43
2022-09-21T14:21:18.909Z,25.79
2022-09-21T14:23:45.240Z,25.27
2022-09-21T14:26:11.598Z,25.29
2022-09-21T14:28:37.924Z,25.99
2022-09-21T14:31:04.245Z,26.18
2022-09-21T14:33:30.572Z,26.00
2022-09-21T14:35:57.138Z,26.40
2022-09-21T14:38:23.501Z,26.23
2022-09-21T14:40:49.825Z,25.66
2022-09-21T14:43:16.161Z,26.29
2022-09-21T14:45:42.527Z,26.22
2022-09-21T14:48:08.838Z,26.07
2022-09-21T14:50:35.153Z,26.55
2022-09-21T14:53:01.478Z,26.01
2022-09-21T14:55:27.813Z,26.32
2022-09-21T14:57:54.142Z,25.50
2022-09-21T15:00:20.462Z,26.00
2022-09-21T15:02:46.807Z,25.88
2022-09-21T15:05:13.123Z,26.00
2022-09-21T15:07:39.438Z,25.31
2022-09-21T15:10:05.766Z,25.27
2022-09-21T15:12:32.099Z,25.44
2022-09-21T15:14:58.434Z,25.54
2022-09-21T15:17:24.761Z,25.38
2022-09-21T15:19:51.093Z,25.90
2022-09-21T15:22:17.427Z,25.49
2022-09-21T15:24:43.742Z,25.30
2022-09-21T15:27:10.065Z,25.92
2022-09-21T15:29:36.395Z,25.74
2022-09-21T15:32:02.714Z,27.26
2022-09-21T15:34:29.037Z,26.99
2022-09-21T15:36:55.388Z,27.65
2022-09-21T15:39:21.711Z,27.69
2022-09-21T15:41:48.046Z,28.30
2022-09-21T15:44:14.362Z,28.07
2022-09-21T15:46:40.751Z,28.21
2022-09-21T15:49:07.207Z,28.23
2022-09-21T15:51:33.522Z,28.46
2022-09-21T15:53:59.863Z,28.61
2022-09-21T15:56:26.195Z,28.40
2022-09-21T15:58:52.539Z,29.18
2022-09-21T16:01:18.946Z,28.90
2022-09-21T16:03:45.430Z,29.07
2022-09-21T16:06:11.765Z,29.27
2022-09-21T16:08:38.106Z,29.30
2022-09-21T16:11:04.426Z,29.49
2022-09-21T16:13:30.738Z,29.81
2022-09-21T16:15:57.112Z,29.74
2022-09-21T16:18:23.487Z,29.85
2022-09-21T16:20:49.815Z,29.97
2022-09-21T16:23:16.128Z,29.78
2022-09-21T16:25:42.448Z,29.76
2022-09-21T16:28:08.783Z,30.12
2022-09-21T16:30:35.131Z,30.10
2022-09-21T16:33:01.468Z,30.33
2022-09-21T16:35:27.788Z,30.17
2022-09-21T16:37:54.114Z,30.29
2022-09-21T16:40:20.519Z,30.13
2022-09-21T16:42:46.899Z,30.77
2022-09-21T16:45:13.217Z,30.41
2022-09-21T16:47:39.538Z,30.58
2022-09-21T16:50:05.870Z,30.59
2022-09-21T16:52:32.200Z,30.97
2022-09-21T16:54:58.546Z,30.67
2022-09-21T16:57:24.898Z,30.61
2022-09-21T16:59:51.265Z,30.78
2022-09-21T17:02:17.637Z,30.68
2022-09-21T17:04:44.005Z,31.06
2022-09-21T17:07:10.380Z,30.97
2022-09-21T17:09:36.708Z,29.98
2022-09-21T17:12:03.038Z,27.88
2022-09-21T17:14:29.353Z,27.12
2022-09-21T17:16:55.685Z,27.24
2022-09-21T17:19:22.011Z,27.59
2022-09-21T17:21:48.331Z,27.64
2022-09-21T17:24:32.773Z,29.46
2022-09-21T17:27:00.979Z,31.35
2022-09-21T17:29:27.297Z,32.22
2022-09-21T17:31:53.622Z,32.40
2022-09-21T17:34:20.007Z,32.47
2022-09-21T17:36:46.322Z,32.82
2022-09-21T17:39:12.626Z,32.86
2022-09-21T17:41:38.944Z,32.45
2022-09-21T17:44:05.268Z,32.67
2022-09-21T17:46:31.657Z,32.68
2022-09-21T17:48:58.010Z,32.96
2022-09-21T17:51:24.346Z,32.84
2022-09-21T17:53:50.678Z,32.83
2022-09-21T17:56:16.995Z,32.83
2022-09-21T17:58:43.343Z,33.26
2022-09-21T18:01:09.663Z,32.67
2022-09-21T18:03:36.076Z,32.71
2022-09-21T18:06:02.429Z,32.71
2022-09-21T18:08:28.758Z,32.65
2022-09-21T18:10:55.082Z,32.54
2022-09-21T18:13:21.403Z,32.86
2022-09-21T18:15:47.774Z,33.18
2022-09-21T18:18:14.154Z,32.89
2022-09-21T18:20:40.487Z,32.74
2022-09-21T18:23:06.837Z,32.99
2022-09-21T18:25:33.152Z,32.90
2022-09-21T18:27:59.488Z,33.28
2022-09-21T18:30:25.825Z,33.17
2022-09-21T18:32:52.156Z,33.13
2022-09-21T18:35:18.481Z,33.30
2022-09-21T18:37:44.799Z,32.84
2022-09-21T18:40:11.151Z,33.16
2022-09-21T18:42:40.148Z,33.24
2022-09-21T18:45:06.825Z,33.66
2022-09-21T18:47:33.214Z,33.17
2022-09-21T18:49:59.582Z,33.22
2022-09-21T18:52:25.917Z,33.15
2022-09-21T18:54:52.301Z,33.18
2022-09-21T18:57:18.673Z,33.48
2022-09-21T18:59:45.040Z,33.78
2022-09-21T19:02:11.490Z,34.24
2022-09-21T19:04:37.898Z,34.37
2022-09-21T19:07:04.225Z,34.38
2022-09-21T19:09:30.559Z,35.00
2022-09-21T19:11:56.914Z,34.17
2022-09-21T19:14:23.242Z,34.49
2022-09-21T19:16:49.631Z,34.42
2022-09-21T19:19:15.969Z,34.57
2022-09-21T19:21:42.412Z,34.75
2022-09-21T19:24:08.899Z,34.58
2022-09-21T19:26:35.316Z,34.29
2022-09-21T19:29:01.706Z,34.18
2022-09-21T19:31:28.150Z,34.00
2022-09-21T19:33:54.540Z,34.31
2022-09-21T19:36:20.916Z,34.34
2022-09-21T19:38:47.245Z,34.34
2022-09-21T19:41:13.628Z,35.76
2022-09-21T19:43:39.990Z,37.19
2022-09-21T19:46:06.393Z,37.70
2022-09-21T19:48:32.798Z,38.39
2022-09-21T19:50:59.154Z,38.09
2022-09-21T19:53:25.501Z,36.55
2022-09-21T19:55:51.861Z,32.70
2022-09-21T19:58:18.198Z,33.86
2022-09-21T20:00:44.568Z,35.12
2022-09-21T20:03:10.892Z,35.10
2022-09-21T20:05:37.252Z,35.53
2022-09-21T20:08:03.611Z,35.48
2022-09-21T20:10:29.938Z,35.41
2022-09-21T20:12:56.300Z,35.59
2022-09-21T20:15:22.617Z,35.73
2022-09-21T20:17:48.965Z,35.61
2022-09-21T20:20:15.315Z,35.77
2022-09-21T20:22:41.675Z,35.42
2022-09-21T20:25:08.061Z,35.44
2022-09-21T20:27:34.389Z,35.52
2022-09-21T20:30:00.710Z,35.56
2022-09-21T20:32:27.093Z,35.56
2022-09-21T20:34:53.445Z,36.06
2022-09-21T20:37:19.824Z,36.14
2022-09-21T20:39:46.166Z,35.90
2022-09-21T20:42:12.494Z,36.02
2022-09-21T20:44:38.827Z,36.16
2022-09-21T20:47:05.160Z,35.86
2022-09-21T20:49:31.492Z,35.97
2022-09-21T20:51:57.815Z,35.80
2022-09-21T20:54:24.277Z,35.89
2022-09-21T20:56:50.660Z,36.33
2022-09-21T20:59:16.972Z,35.80
2022-09-21T21:01:43.448Z,35.96
2022-09-21T21:04:09.893Z,35.86
2022-09-21T21:06:36.319Z,35.91
2022-09-21T21:09:02.641Z,36.15
2022-09-21T21:11:28.992Z,35.73
2022-09-21T21:13:55.348Z,35.86
2022-09-21T21:16:21.662Z,35.56
2022-09-21T21:18:49.108Z,35.52
2022-09-21T21:21:15.446Z,35.80
2022-09-21T21:23:41.753Z,35.66
2022-09-21T21:26:08.070Z,35.57
2022-09-21T21:28:34.518Z,35.94
2022-09-21T21:31:00.860Z,35.72
2022-09-21T21:33:27.192Z,35.87
2022-09-21T21:35:53.523Z,35.44
2022-09-21T21:38:19.855Z,35.70
2022-09-21T21:40:46.286Z,35.95
2022-09-21T21:43:12.688Z,35.83
2022-09-21T21:45:39.067Z,35.72
2022-09-21T21:48:05.530Z,35.68
2022-09-21T21:50:31.861Z,35.74
2022-09-21T21:52:58.174Z,35.74
2022-09-21T21:55:24.507Z,36.30
2022-09-21T21:57:50.828Z,36.47
2022-09-21T22:00:17.167Z,36.37
2022-09-21T22:02:43.482Z,36.37
2022-09-21T22:05:09.813Z,36.38
2022-09-21T22:07:36.314Z,36.53
2022-09-21T22:10:02.693Z,36.12
2022-09-21T22:12:29.021Z,36.35
2022-09-21T22:14:55.338Z,36.28
2022-09-21T22:17:21.676Z,36.69
2022-09-21T22:19:47.987Z,36.62
2022-09-21T22:22:14.335Z,36.59
2022-09-21T22:24:40.660Z,36.66
2022-09-21T22:27:07.096Z,36.65
2022-09-21T22:29:33.442Z,36.80
2022-09-21T22:31:59.857Z,36.65
2022-09-21T22:34:26.245Z,36.93
2022-09-21T22:36:52.606Z,37.17
2022-09-21T22:39:18.934Z,37.00
2022-09-21T22:41:45.248Z,37.22
2022-09-21T22:44:11.624Z,37.00
2022-09-21T22:46:37.957Z,37.01
2022-09-21T22:49:04.301Z,37.46
2022-09-21T22:51:30.662Z,37.32
2022-09-21T22:53:57.043Z,37.39
2022-09-21T22:56:23.429Z,37.62
2022-09-21T22:58:49.744Z,37.46
2022-09-21T23:01:16.349Z,37.54
2022-09-21T23:03:42.822Z,37.45
2022-09-21T23:06:09.259Z,37.66
2022-09-21T23:08:35.573Z,37.38
2022-09-21T23:11:01.890Z,37.49
2022-09-21T23:13:28.208Z,37.57
2022-09-21T23:15:54.589Z,37.07
2022-09-21T23:18:21.014Z,37.24
2022-09-21T23:20:47.330Z,37.28
2022-09-21T23:23:13.654Z,37.26
2022-09-21T23:25:39.959Z,37.44
2022-09-21T23:28:06.282Z,37.18
2022-09-21T23:30:32.624Z,37.58
2022-09-21T23:32:58.966Z,37.16
2022-09-21T23:35:25.278Z,37.20
2022-09-21T23:37:51.647Z,37.25
2022-09-21T23:40:18.088Z,37.02
2022-09-21T23:42:44.489Z,37.02
2022-09-21T23:45:10.820Z,37.42
2022-09-21T23:47:37.138Z,37.35
2022-09-21T23:50:03.469Z,37.27
2022-09-21T23:52:29.809Z,36.99
2022-09-21T23:54:56.137Z,37.09
2022-09-21T23:57:22.464Z,37.32
2022-09-21T23:59:48.807Z,37.62
